Tshane, Botswana
Current Conditions -  °F | °C
As of 2:00 PM on Monday 24 Nov 2014 (Local Time) from FBSK Reporting Station
Scattered Clouds Scattered Clouds  
Wind Chill: 86°   Ceiling: Unl
Heat Index: 86°   Visibility: 6mi
Dew Point: 50°   Wind: 6mph
Humidity: 29%   Direction: 360°N
Pressure: 30.03"   Gusts: NA
Location:  24.02°S, 21.88°E
Report Text: FBSK 241200Z 36005KT 310V070 9999 FEW030 FEW035TCU SCT070 30/10 Q1017 NOSIG
Loading
Personal Weather Stations






























Interactive Weather Map New forecast layout! Learn more

10-Day Weather Forecast

Advertisements
Track Severe Weather on mobile